Oryx — YJTJ3 — position and weather

sailwx.info

Track history (hours):
 
Tides and Currents Weather Stations Pressure Air Temp Water Temp Dewpoint Dewpoint Depression Visibility Wind Speed Wind Dir Waves Ship Positions

Oryx

Last reported at 2017-Nov-22 21:26 UTC. Time now 2017-Nov-23 01:55 UTC.
Position N 11°15' W 074°32'.

Length 92 m; draft 4.9 m.

Type: Ship. MMSI: 577163000.

Date/timePositionNaut miles runAvg speedWind from/ knotsBaromVisibWave heightAir tempDewpointWater temp
2017-Nov-22 21:26N 11°15' W 074°32'510.1
2017-Nov-22 20:58N 11°13' W 074°37'3 5.8
2017-Nov-22 20:30N 11°12' W 074°40'2 4.2
2017-Nov-22 19:56N 11°12' W 074°42'910.0
2017-Nov-22 19:04N 11°09' W 074°50'  
2017-Nov-19 13:40N 11°01' W 074°47'1 6.9
2017-Nov-19 13:30N 11°02' W 074°48'3 6.7
2017-Nov-19 13:00N 11°04' W 074°50'3 6.0
2017-Nov-19 12:30N 11°07' W 074°51'3 5.4
2017-Nov-19 12:00N 11°09' W 074°50'  
Track history (hours):
 
Tides and Currents Weather Stations Pressure Air Temp Water Temp Dewpoint Dewpoint Depression Visibility Wind Speed Wind Dir Waves Ship Positions

Oryx

Last reported at 2017-Nov-22 21:26 UTC. Time now 2017-Nov-23 01:55 UTC.
Position N 11°15' W 074°32'.

Length 92 m; draft 4.9 m.

Type: Ship. MMSI: 577163000.

Date/timePositionNaut miles runAvg speedWind from/ knotsBaromVisibWave heightAir tempDewpointWater temp
2017-Nov-22 21:26N 11°15' W 074°32'510.1
2017-Nov-22 20:58N 11°13' W 074°37'3 5.8
2017-Nov-22 20:30N 11°12' W 074°40'2 4.2
2017-Nov-22 19:56N 11°12' W 074°42'910.0
2017-Nov-22 19:04N 11°09' W 074°50'  
2017-Nov-19 13:40N 11°01' W 074°47'1 6.9
2017-Nov-19 13:30N 11°02' W 074°48'3 6.7
2017-Nov-19 13:00N 11°04' W 074°50'3 6.0
2017-Nov-19 12:30N 11°07' W 074°51'3 5.4
2017-Nov-19 12:00N 11°09' W 074°50'  

Dump ship's entire track history